createdAt,value
2022-08-05T00:00:18.758Z,98811.44
2022-08-05T00:02:50.577Z,98823.97
2022-08-05T00:06:03.301Z,98806.84
2022-08-05T00:08:05.422Z,98792.38
2022-08-05T00:10:51.930Z,98816.66
2022-08-05T00:13:18.844Z,98822.31
2022-08-05T00:15:55.149Z,98811.03
2022-08-05T00:18:23.318Z,98820.88
2022-08-05T00:20:51.744Z,98804.13
2022-08-05T00:23:44.574Z,98759.97
2022-08-05T00:26:06.871Z,98808.47
2022-08-05T00:28:33.725Z,98808.06
2022-08-05T00:31:04.475Z,98808.69
2022-08-05T00:34:54.675Z,98817.69
2022-08-05T00:37:09.986Z,98817.47
2022-08-05T00:39:13.416Z,98808.91
2022-08-05T00:41:52.129Z,98781.69
2022-08-05T00:44:23.197Z,98810.13
2022-08-05T00:47:02.028Z,98782.75
2022-08-05T00:49:32.847Z,98803.69
2022-08-05T00:52:00.530Z,98742.38
2022-08-05T00:54:28.084Z,98788.59
2022-08-05T00:56:56.923Z,98779.41
2022-08-05T00:59:23.928Z,98791.09
2022-08-05T01:01:51.127Z,98796.94
2022-08-05T01:04:19.988Z,98778.97
2022-08-05T01:06:53.350Z,98737.31
2022-08-05T01:09:22.682Z,98783.78
2022-08-05T01:11:52.338Z,98782.50
2022-08-05T01:14:36.542Z,98788.56
2022-08-05T01:17:14.377Z,98800.31
2022-08-05T01:20:01.406Z,98795.06
2022-08-05T01:22:41.996Z,98790.44
2022-08-05T01:25:53.169Z,98784.78
2022-08-05T01:28:47.402Z,98800.91
2022-08-05T01:31:22.805Z,98776.22
2022-08-05T01:34:03.145Z,98773.69
2022-08-05T01:36:35.571Z,98784.16
2022-08-05T01:39:11.002Z,98768.25
2022-08-05T01:41:39.532Z,98741.00
2022-08-05T01:44:14.166Z,98774.91
2022-08-05T01:46:46.304Z,98775.31
2022-08-05T01:49:23.987Z,98778.47
2022-08-05T01:51:59.411Z,98770.09
2022-08-05T01:54:46.109Z,98779.75
2022-08-05T01:58:10.466Z,98773.66
2022-08-05T02:00:06.493Z,98775.72
2022-08-05T02:02:51.071Z,98768.56
2022-08-05T02:05:23.523Z,98768.56
2022-08-05T02:07:59.813Z,98766.88
2022-08-05T02:10:39.022Z,98771.91
2022-08-05T02:13:53.370Z,98769.56
2022-08-05T02:16:36.899Z,98784.66
2022-08-05T02:19:27.815Z,98783.34
2022-08-05T02:22:01.339Z,98776.63
2022-08-05T02:24:37.071Z,98766.22
2022-08-05T02:27:10.066Z,98734.22
2022-08-05T02:29:59.522Z,98779.22
2022-08-05T02:32:30.904Z,98779.81
2022-08-05T02:35:13.695Z,98784.34
2022-08-05T02:37:47.737Z,98774.28
2022-08-05T02:40:21.600Z,98775.47
2022-08-05T02:42:52.742Z,98769.25
2022-08-05T02:45:23.807Z,98781.19
2022-08-05T02:48:06.901Z,98725.69
2022-08-05T02:50:43.772Z,98774.44
2022-08-05T02:53:16.043Z,98769.81
2022-08-05T02:55:53.912Z,98773.81
2022-08-05T02:58:23.246Z,98759.59
2022-08-05T03:00:56.775Z,98769.22
2022-08-05T03:03:24.401Z,98763.31
2022-08-05T03:06:53.703Z,98727.50
2022-08-05T03:08:42.395Z,98762.88
2022-08-05T03:11:56.639Z,98761.69
2022-08-05T03:14:13.492Z,98745.31
2022-08-05T03:16:40.852Z,98730.19
2022-08-05T03:19:12.763Z,98768.09
2022-08-05T03:21:54.942Z,98735.78
2022-08-05T03:24:29.255Z,98759.66
2022-08-05T03:26:57.882Z,98749.75
2022-08-05T03:29:24.718Z,98757.97
2022-08-05T03:32:12.158Z,98770.16
2022-08-05T03:34:41.902Z,98759.25
2022-08-05T03:37:08.998Z,98761.66
2022-08-05T03:39:58.618Z,98744.91
2022-08-05T03:42:27.141Z,98740.47
2022-08-05T03:44:55.717Z,98771.28
2022-08-05T03:47:24.255Z,98739.69
2022-08-05T03:49:52.443Z,98761.44
2022-08-05T03:52:38.007Z,98766.00
2022-08-05T03:56:04.182Z,98763.69
2022-08-05T03:58:16.510Z,98772.31
2022-08-05T04:00:51.469Z,98757.22
2022-08-05T04:03:28.928Z,98752.00
2022-08-05T04:05:57.727Z,98729.06
2022-08-05T04:08:34.997Z,98766.69
2022-08-05T04:11:05.264Z,98762.72
2022-08-05T04:13:49.813Z,98761.19
2022-08-05T04:16:25.187Z,98747.13
2022-08-05T04:18:58.000Z,98767.03
2022-08-05T04:22:08.748Z,98748.81
2022-08-05T04:24:18.800Z,98771.25
2022-08-05T04:26:46.811Z,98754.91
2022-08-05T04:29:13.571Z,98762.56
2022-08-05T04:31:41.280Z,98772.81
2022-08-05T04:34:31.128Z,98762.38
2022-08-05T04:36:56.725Z,98776.13
2022-08-05T04:39:24.093Z,98777.19
2022-08-05T04:41:51.413Z,98766.91
2022-08-05T04:44:29.543Z,98772.13
2022-08-05T04:46:59.048Z,98784.75
2022-08-05T04:49:39.118Z,98775.13
2022-08-05T04:52:13.976Z,98789.75
2022-08-05T04:54:42.181Z,98766.75
2022-08-05T04:57:08.891Z,98781.41
2022-08-05T04:59:39.380Z,98777.22
2022-08-05T05:02:37.402Z,98776.22
2022-08-05T05:05:02.770Z,98755.16
2022-08-05T05:07:32.103Z,98792.47
2022-08-05T05:10:02.176Z,98787.06
2022-08-05T05:12:29.516Z,98793.28
2022-08-05T05:14:56.348Z,98769.91
2022-08-05T05:17:24.880Z,98792.53
2022-08-05T05:20:11.470Z,98794.88
2022-08-05T05:22:40.739Z,98789.31
2022-08-05T05:25:16.131Z,98754.78
2022-08-05T05:27:53.690Z,98805.47
2022-08-05T05:30:31.087Z,98796.94
2022-08-05T05:33:03.890Z,98782.75
2022-08-05T05:35:44.100Z,98799.69
2022-08-05T05:38:12.829Z,98754.09
2022-08-05T05:40:48.302Z,98806.44
2022-08-05T05:43:28.209Z,98756.81
2022-08-05T05:46:03.842Z,98788.78
2022-08-05T05:48:32.293Z,98775.13
2022-08-05T05:51:14.765Z,98788.63
2022-08-05T05:53:46.052Z,98807.31
2022-08-05T05:56:32.901Z,98811.31
2022-08-05T05:59:06.814Z,98809.63
2022-08-05T06:01:37.416Z,98806.88
2022-08-05T06:04:06.633Z,98789.50
2022-08-05T06:06:34.879Z,98794.19
2022-08-05T06:09:04.062Z,98795.22
2022-08-05T06:11:34.635Z,98751.50
2022-08-05T06:14:02.107Z,98754.75
2022-08-05T06:16:33.076Z,98805.50
2022-08-05T06:19:07.134Z,98810.97
2022-08-05T06:21:37.815Z,98779.56
2022-08-05T06:24:07.772Z,98805.44
2022-08-05T06:26:51.871Z,98754.72
2022-08-05T06:29:44.281Z,98784.78
2022-08-05T06:32:25.128Z,98789.94
2022-08-05T06:34:56.864Z,98748.50
2022-08-05T06:37:56.996Z,98780.88
2022-08-05T06:40:12.984Z,98771.84
2022-08-05T06:42:41.079Z,98786.78
2022-08-05T06:45:09.470Z,98763.81
2022-08-05T06:48:37.016Z,98796.59
2022-08-05T06:50:25.089Z,98798.81
2022-08-05T06:52:58.424Z,98799.94
2022-08-05T06:55:25.883Z,98770.94
2022-08-05T06:57:57.340Z,98791.78
2022-08-05T07:00:31.750Z,98760.63
2022-08-05T07:03:00.104Z,98785.44
2022-08-05T07:05:37.178Z,98760.94
2022-08-05T07:08:05.359Z,98761.72
2022-08-05T07:10:32.639Z,98781.28
2022-08-05T07:13:56.768Z,98764.84
2022-08-05T07:18:07.024Z,98765.19
2022-08-05T07:19:10.702Z,98794.28
2022-08-05T07:22:00.795Z,98781.84
2022-08-05T07:24:25.298Z,98784.75
2022-08-05T07:26:55.630Z,98777.22
2022-08-05T07:30:22.045Z,98777.31
2022-08-05T07:32:09.368Z,98773.53
2022-08-05T07:34:40.465Z,98751.41
2022-08-05T07:37:11.733Z,98755.63
2022-08-05T07:40:26.588Z,98774.75
2022-08-05T07:42:31.704Z,98769.22
2022-08-05T07:45:01.131Z,98768.72
2022-08-05T07:47:41.968Z,98751.59
2022-08-05T07:50:09.923Z,98761.78
2022-08-05T07:52:40.735Z,98746.81
2022-08-05T07:55:15.800Z,98766.34
2022-08-05T07:58:02.371Z,98764.56
2022-08-05T08:00:30.133Z,98747.44
2022-08-05T08:03:14.037Z,98693.41
2022-08-05T08:05:49.628Z,98758.97
2022-08-05T08:08:20.063Z,98763.94
2022-08-05T08:10:48.939Z,98734.31
2022-08-05T08:13:22.126Z,98765.97
2022-08-05T08:16:34.875Z,98763.66
2022-08-05T08:18:43.403Z,98731.31
2022-08-05T08:21:17.688Z,98765.53
2022-08-05T08:24:02.764Z,98765.25
2022-08-05T08:26:31.607Z,98753.72
2022-08-05T08:30:03.397Z,98751.03
2022-08-05T08:31:49.701Z,98762.91
2022-08-05T08:34:30.749Z,98770.88
2022-08-05T08:37:05.336Z,98735.59
2022-08-05T08:39:32.624Z,98730.75
2022-08-05T08:42:10.795Z,98758.88
2022-08-05T08:45:24.012Z,98737.84
2022-08-05T08:48:07.010Z,98763.97
2022-08-05T08:51:07.675Z,98770.19
2022-08-05T08:53:25.187Z,98770.44
2022-08-05T08:56:03.865Z,98736.72
2022-08-05T08:58:43.875Z,98758.88
2022-08-05T09:01:16.273Z,98762.38
2022-08-05T09:03:46.862Z,98705.25
2022-08-05T09:06:18.630Z,98743.81
2022-08-05T09:08:48.052Z,98765.59
2022-08-05T09:11:15.398Z,98746.41
2022-08-05T09:14:00.992Z,98751.28
2022-08-05T09:16:30.694Z,98728.28
2022-08-05T09:18:59.284Z,98741.47
2022-08-05T09:22:30.916Z,98736.94
2022-08-05T09:24:15.659Z,98737.84
2022-08-05T09:26:46.351Z,98737.41
2022-08-05T09:29:17.523Z,98733.56
2022-08-05T09:32:41.210Z,98717.91
2022-08-05T09:34:56.397Z,98736.88
2022-08-05T09:38:12.731Z,98707.25
2022-08-05T09:40:29.203Z,98741.56
2022-08-05T09:42:56.028Z,98692.38
2022-08-05T09:46:07.735Z,98740.22
2022-08-05T09:48:26.975Z,98734.13
2022-08-05T09:50:58.560Z,98707.06
2022-08-05T09:53:54.380Z,98702.34
2022-08-05T09:56:25.453Z,98717.75
2022-08-05T09:59:04.306Z,98728.44
2022-08-05T10:01:35.399Z,98722.41
2022-08-05T10:04:16.022Z,98714.03
2022-08-05T10:07:19.704Z,98688.63
2022-08-05T10:10:13.971Z,98702.00
2022-08-05T10:12:52.559Z,98722.69
2022-08-05T10:15:28.843Z,98688.16
2022-08-05T10:18:06.671Z,98725.88
2022-08-05T10:20:35.503Z,98679.91
2022-08-05T10:23:02.518Z,98729.09
2022-08-05T10:25:30.294Z,98710.56
2022-08-05T10:28:09.736Z,98700.63
2022-08-05T10:32:49.112Z,98724.31
2022-08-05T10:33:34.197Z,98724.00
2022-08-05T10:36:04.779Z,98722.50
2022-08-05T10:38:34.150Z,98717.97
2022-08-05T10:41:23.461Z,98725.81
2022-08-05T10:44:13.162Z,98715.19
2022-08-05T10:46:55.308Z,98711.78
2022-08-05T10:49:27.575Z,98718.47
2022-08-05T10:52:05.352Z,98708.03
2022-08-05T10:55:01.978Z,98716.50
2022-08-05T10:58:06.042Z,98712.66
2022-08-05T11:00:34.343Z,98706.75
2022-08-05T11:03:23.023Z,98710.91
2022-08-05T11:06:15.213Z,98694.78
2022-08-05T11:09:24.185Z,98709.13
2022-08-05T11:12:00.741Z,98658.88
2022-08-05T11:14:57.598Z,98643.56
2022-08-05T11:17:59.193Z,98701.09
2022-08-05T11:20:43.956Z,98700.59
2022-08-05T11:24:04.819Z,98695.78
2022-08-05T11:26:27.998Z,98685.28
2022-08-05T11:29:11.532Z,98702.78
2022-08-05T11:31:58.825Z,98689.19
2022-08-05T11:34:51.665Z,98701.38
2022-08-05T11:38:28.240Z,98701.25
2022-08-05T11:41:36.799Z,98708.28
2022-08-05T11:44:06.778Z,98712.88
2022-08-05T11:46:58.297Z,98679.94
2022-08-05T11:49:27.648Z,98700.81
2022-08-05T11:51:54.713Z,98696.69
2022-08-05T11:54:33.972Z,98702.91
2022-08-05T11:57:08.311Z,98689.88
2022-08-05T11:59:51.972Z,98710.03
2022-08-05T12:02:31.300Z,98687.44
2022-08-05T12:05:07.083Z,98694.94
2022-08-05T12:08:03.576Z,98681.16
2022-08-05T12:10:43.263Z,98709.47
2022-08-05T12:13:28.091Z,98698.09
2022-08-05T12:16:14.674Z,98701.94
2022-08-05T12:18:53.144Z,98697.63
2022-08-05T12:21:50.829Z,98696.06
2022-08-05T12:24:19.923Z,98698.50
2022-08-05T12:26:50.156Z,98680.19
2022-08-05T12:29:22.807Z,98697.25
2022-08-05T12:32:01.766Z,98688.59
2022-08-05T12:34:32.271Z,98685.81
2022-08-05T12:37:03.299Z,98673.81
2022-08-05T12:39:37.315Z,98664.53
2022-08-05T12:42:29.855Z,98676.97
2022-08-05T12:45:09.387Z,98663.84
2022-08-05T12:48:01.074Z,98658.78
2022-08-05T12:50:27.320Z,98660.44
2022-08-05T12:53:10.054Z,98638.22
2022-08-05T12:55:42.537Z,98649.44
2022-08-05T12:58:39.088Z,98658.44
2022-08-05T13:02:01.082Z,98649.56
2022-08-05T13:04:07.438Z,98653.19
2022-08-05T13:06:51.502Z,98664.13
2022-08-05T13:09:28.293Z,98656.16
2022-08-05T13:12:04.466Z,98646.19
2022-08-05T13:14:46.594Z,98651.56
2022-08-05T13:17:41.403Z,98640.38
2022-08-05T13:20:20.313Z,98650.13
2022-08-05T13:22:52.682Z,98641.09
2022-08-05T13:25:22.259Z,98610.88
2022-08-05T13:28:08.017Z,98625.13
2022-08-05T13:30:39.101Z,98609.56
2022-08-05T13:33:06.153Z,98627.88
2022-08-05T13:35:50.314Z,98600.31
2022-08-05T13:38:31.095Z,98620.63
2022-08-05T13:41:03.933Z,98593.78
2022-08-05T13:43:44.395Z,98606.94
2022-08-05T13:46:30.823Z,98608.75
2022-08-05T13:49:09.869Z,98601.47
2022-08-05T13:51:47.131Z,98604.56
2022-08-05T13:54:15.985Z,98587.00
2022-08-05T13:56:51.535Z,98592.31
2022-08-05T13:59:24.085Z,98589.97
2022-08-05T14:02:01.532Z,98601.03
2022-08-05T14:04:53.890Z,98601.97
2022-08-05T14:07:56.907Z,98597.06
2022-08-05T14:10:28.052Z,98562.00
2022-08-05T14:12:58.620Z,98577.66
2022-08-05T14:16:05.956Z,98583.22
2022-08-05T14:18:17.330Z,98584.78
2022-08-05T14:20:49.057Z,98579.19
2022-08-05T14:23:24.871Z,98556.69
2022-08-05T14:25:58.979Z,98540.78
2022-08-05T14:28:29.789Z,98578.63
2022-08-05T14:30:57.962Z,98548.84
2022-08-05T14:33:25.161Z,98573.47
2022-08-05T14:35:54.417Z,98577.63
2022-08-05T14:38:31.592Z,98585.72
2022-08-05T14:41:06.382Z,98586.72
2022-08-05T14:44:00.053Z,98586.94
2022-08-05T14:46:28.954Z,98589.50
2022-08-05T14:49:03.481Z,98579.34
2022-08-05T14:51:38.872Z,98582.19
2022-08-05T14:54:27.664Z,98587.78
2022-08-05T14:56:57.077Z,98585.44
2022-08-05T14:59:24.410Z,98579.91
2022-08-05T15:01:51.442Z,98573.63
2022-08-05T15:04:22.193Z,98582.63
2022-08-05T15:06:52.208Z,98566.47
2022-08-05T15:09:52.533Z,98582.91
2022-08-05T15:12:08.874Z,98578.16
2022-08-05T15:14:48.336Z,98541.00
2022-08-05T15:17:45.681Z,98572.63
2022-08-05T15:20:18.282Z,98573.31
2022-08-05T15:22:54.300Z,98560.47
2022-08-05T15:25:41.170Z,98558.22
2022-08-05T15:28:14.515Z,98557.63
2022-08-05T15:30:43.426Z,98552.59
2022-08-05T15:33:10.910Z,98548.75
2022-08-05T15:35:45.162Z,98556.03
2022-08-05T15:38:35.350Z,98536.75
2022-08-05T15:41:23.188Z,98522.34
2022-08-05T15:43:47.918Z,98556.09
2022-08-05T15:46:14.861Z,98574.75
2022-08-05T15:48:52.786Z,98563.91
2022-08-05T15:52:13.654Z,98570.66
2022-08-05T15:54:17.262Z,98554.63
2022-08-05T15:56:44.153Z,98574.03
2022-08-05T15:59:21.742Z,98569.78
2022-08-05T16:01:52.307Z,98541.38
2022-08-05T16:04:19.905Z,98570.78
2022-08-05T16:06:46.693Z,98582.63
2022-08-05T16:09:13.612Z,98589.50
2022-08-05T16:11:43.442Z,98555.16
2022-08-05T16:14:17.414Z,98562.81
2022-08-05T16:16:44.863Z,98576.84
2022-08-05T16:19:18.839Z,98581.75
2022-08-05T16:22:00.528Z,98569.13
2022-08-05T16:24:39.921Z,98544.03
2022-08-05T16:27:09.412Z,98573.94
2022-08-05T16:29:37.237Z,98535.03
2022-08-05T16:32:09.554Z,98532.19
2022-08-05T16:34:37.132Z,98568.53
2022-08-05T16:38:02.364Z,98562.84
2022-08-05T16:40:05.943Z,98576.94
2022-08-05T16:42:34.639Z,98541.94
2022-08-05T16:45:01.894Z,98581.84
2022-08-05T16:47:40.833Z,98574.50
2022-08-05T16:50:19.758Z,98540.41
2022-08-05T16:52:47.253Z,98550.38
2022-08-05T16:55:14.061Z,98553.75
2022-08-05T16:57:52.877Z,98581.75
2022-08-05T17:00:34.532Z,98580.38
2022-08-05T17:03:15.315Z,98592.13
2022-08-05T17:05:50.250Z,98553.91
2022-08-05T17:08:36.748Z,98589.13
2022-08-05T17:11:12.717Z,98583.09
2022-08-05T17:13:44.517Z,98549.94
2022-08-05T17:16:33.626Z,98599.78
2022-08-05T17:19:00.554Z,98551.63
2022-08-05T17:21:36.067Z,98586.34
2022-08-05T17:24:30.375Z,98592.16
2022-08-05T17:26:56.791Z,98600.78
2022-08-05T17:29:33.339Z,98599.88
2022-08-05T17:32:01.081Z,98592.31
2022-08-05T17:34:30.123Z,98582.06
2022-08-05T17:37:00.564Z,98609.78
2022-08-05T17:39:34.656Z,98596.81
2022-08-05T17:42:19.208Z,98582.38
2022-08-05T17:44:50.450Z,98568.41
2022-08-05T17:47:22.553Z,98609.47
2022-08-05T17:50:03.940Z,98611.59
2022-08-05T17:52:53.068Z,98607.44
2022-08-05T17:55:22.253Z,98612.06
2022-08-05T17:57:50.333Z,98615.31
2022-08-05T18:00:18.574Z,98621.44
2022-08-05T18:02:47.304Z,98634.88
2022-08-05T18:05:16.934Z,98621.81
2022-08-05T18:07:44.814Z,98631.41
2022-08-05T18:10:20.583Z,98632.91
2022-08-05T18:12:49.501Z,98627.41
2022-08-05T18:15:16.385Z,98644.78
2022-08-05T18:17:58.713Z,98591.22
2022-08-05T18:20:32.140Z,98619.53
2022-08-05T18:23:09.487Z,98644.84
2022-08-05T18:25:38.815Z,98646.78
2022-08-05T18:28:06.758Z,98639.88
2022-08-05T18:30:34.271Z,98627.75
2022-08-05T18:33:01.671Z,98652.56
2022-08-05T18:36:00.527Z,98664.16
2022-08-05T18:38:19.300Z,98660.31
2022-08-05T18:41:56.462Z,98610.41
2022-08-05T18:43:43.042Z,98673.84
2022-08-05T18:46:20.039Z,98666.94
2022-08-05T18:48:51.956Z,98660.91
2022-08-05T18:52:05.935Z,98668.94
2022-08-05T18:54:30.918Z,98632.25
2022-08-05T18:57:01.042Z,98648.25
2022-08-05T18:59:43.211Z,98689.94
2022-08-05T19:02:38.125Z,98668.16
2022-08-05T19:06:06.388Z,98627.84
2022-08-05T19:07:55.371Z,98695.25
2022-08-05T19:10:28.079Z,98708.50
2022-08-05T19:12:57.020Z,98675.38
2022-08-05T19:15:57.788Z,98696.63
2022-08-05T19:18:13.619Z,98709.59
2022-08-05T19:20:51.914Z,98713.41
2022-08-05T19:24:03.251Z,98710.34
2022-08-05T19:26:09.227Z,98716.41
2022-08-05T19:28:43.409Z,98703.16
2022-08-05T19:31:12.864Z,98724.69
2022-08-05T19:33:48.285Z,98716.69
2022-08-05T19:38:51.477Z,98687.09
2022-08-05T19:41:21.869Z,98652.22
2022-08-05T19:44:12.952Z,98681.50
2022-08-05T19:46:41.337Z,98688.66
2022-08-05T19:49:12.435Z,98682.88
2022-08-05T19:52:05.155Z,98671.84
2022-08-05T19:54:35.533Z,98702.50
2022-08-05T19:57:10.131Z,98659.66
2022-08-05T19:59:55.268Z,98733.72
2022-08-05T20:02:31.498Z,98741.72
2022-08-05T20:04:59.908Z,98743.13
2022-08-05T20:07:46.270Z,98740.28
2022-08-05T20:10:16.793Z,98749.47
2022-08-05T20:12:47.685Z,98740.50
2022-08-05T20:15:47.712Z,98739.84
2022-08-05T20:18:10.738Z,98734.28
2022-08-05T20:20:55.888Z,98733.19
2022-08-05T20:23:40.055Z,98720.78
2022-08-05T20:26:16.259Z,98740.97
2022-08-05T20:28:55.627Z,98730.94
2022-08-05T20:31:36.805Z,98739.28
2022-08-05T20:34:10.719Z,98738.59
2022-08-05T20:36:39.032Z,98733.34
2022-08-05T20:39:12.979Z,98739.44
2022-08-05T20:41:44.500Z,98744.66
2022-08-05T20:44:29.720Z,98735.47
2022-08-05T20:47:03.543Z,98735.81
2022-08-05T20:49:33.273Z,98740.47
2022-08-05T20:52:05.279Z,98739.34
2022-08-05T20:54:43.700Z,98725.53
2022-08-05T20:57:41.928Z,98742.56
2022-08-05T21:00:40.919Z,98745.13
2022-08-05T21:03:01.530Z,98747.91
2022-08-05T21:05:47.690Z,98749.53
2022-08-05T21:08:15.638Z,98757.19
2022-08-05T21:10:49.064Z,98753.09
2022-08-05T21:13:26.572Z,98753.88
2022-08-05T21:16:03.554Z,98759.75
2022-08-05T21:18:31.155Z,98776.59
2022-08-05T21:20:58.571Z,98773.31
2022-08-05T21:23:25.520Z,98769.47
2022-08-05T21:25:55.343Z,98762.69
2022-08-05T21:28:23.984Z,98765.00
2022-08-05T21:30:57.442Z,98761.78
2022-08-05T21:33:24.333Z,98749.94
2022-08-05T21:36:04.493Z,98765.94
2022-08-05T21:38:31.813Z,98757.31
2022-08-05T21:40:58.672Z,98769.22
2022-08-05T21:43:25.393Z,98760.03
2022-08-05T21:45:57.867Z,98756.81
2022-08-05T21:48:28.979Z,98766.31
2022-08-05T21:50:58.991Z,98773.75
2022-08-05T21:53:27.335Z,98773.00
2022-08-05T21:56:05.055Z,98760.59
2022-08-05T21:58:33.361Z,98763.13
2022-08-05T22:01:00.613Z,98773.06
2022-08-05T22:03:48.924Z,98770.06
2022-08-05T22:06:16.429Z,98779.75
2022-08-05T22:08:52.066Z,98763.13
2022-08-05T22:11:34.814Z,98788.09
2022-08-05T22:14:06.074Z,98798.78
2022-08-05T22:16:51.178Z,98799.91
2022-08-05T22:20:02.125Z,98789.06
2022-08-05T22:22:06.769Z,98801.53
2022-08-05T22:24:53.529Z,98789.34
2022-08-05T22:28:09.595Z,98811.75
2022-08-05T22:30:35.144Z,98808.13
2022-08-05T22:33:15.628Z,98815.88
2022-08-05T22:35:48.814Z,98827.81
2022-08-05T22:38:16.720Z,98816.41
2022-08-05T22:40:49.634Z,98828.75
2022-08-05T22:43:17.178Z,98832.28
2022-08-05T22:46:11.892Z,98841.63
2022-08-05T22:48:39.963Z,98841.31
2022-08-05T22:51:08.097Z,98843.28
2022-08-05T22:53:42.945Z,98843.06
2022-08-05T22:56:16.813Z,98834.56
2022-08-05T22:58:43.955Z,98843.28
2022-08-05T23:03:59.143Z,98837.63
2022-08-05T23:06:22.710Z,98834.78
2022-08-05T23:08:53.260Z,98826.00
2022-08-05T23:11:20.056Z,98834.06
2022-08-05T23:13:48.476Z,98829.13
2022-08-05T23:16:33.289Z,98829.63
2022-08-05T23:19:00.500Z,98851.88
2022-08-05T23:21:42.924Z,98856.22
2022-08-05T23:24:15.530Z,98850.13
2022-08-05T23:26:42.313Z,98852.69
2022-08-05T23:29:11.012Z,98850.38
2022-08-05T23:31:42.743Z,98871.31
2022-08-05T23:34:11.369Z,98867.16
2022-08-05T23:36:40.319Z,98887.75
2022-08-05T23:39:17.471Z,98888.16
2022-08-05T23:41:51.483Z,98905.69
2022-08-05T23:44:19.842Z,98910.75
2022-08-05T23:46:51.893Z,98921.00
2022-08-05T23:49:23.847Z,98931.09
2022-08-05T23:52:19.194Z,98933.91
2022-08-05T23:54:49.449Z,98949.97
2022-08-05T23:57:16.232Z,98961.53
